sensor_id;sensor_type;location;lat;lon;timestamp;P1;durP1;ratioP1;P2;durP2;ratioP2
62582;SDS011;48641;51.676;5.808;2023-04-21T00:02:17;5.75;;;2.28;;
62582;SDS011;48641;51.676;5.808;2023-04-21T00:04:43;5.40;;;2.65;;
62582;SDS011;48641;51.676;5.808;2023-04-21T00:07:09;5.70;;;2.63;;
62582;SDS011;48641;51.676;5.808;2023-04-21T00:09:35;5.22;;;2.38;;
62582;SDS011;48641;51.676;5.808;2023-04-21T00:12:01;5.15;;;2.40;;
62582;SDS011;48641;51.676;5.808;2023-04-21T00:14:27;6.47;;;2.20;;
62582;SDS011;48641;51.676;5.808;2023-04-21T00:16:52;5.85;;;2.60;;
62582;SDS011;48641;51.676;5.808;2023-04-21T00:19:18;5.55;;;2.42;;
62582;SDS011;48641;51.676;5.808;2023-04-21T00:21:44;5.75;;;2.53;;
62582;SDS011;48641;51.676;5.808;2023-04-21T00:24:10;5.60;;;2.50;;
62582;SDS011;48641;51.676;5.808;2023-04-21T00:26:35;6.18;;;2.67;;
62582;SDS011;48641;51.676;5.808;2023-04-21T00:29:01;5.50;;;2.42;;
62582;SDS011;48641;51.676;5.808;2023-04-21T00:31:27;6.47;;;2.75;;
62582;SDS011;48641;51.676;5.808;2023-04-21T00:33:52;5.78;;;2.58;;
62582;SDS011;48641;51.676;5.808;2023-04-21T00:36:19;5.18;;;2.38;;
62582;SDS011;48641;51.676;5.808;2023-04-21T00:38:45;5.60;;;2.63;;
62582;SDS011;48641;51.676;5.808;2023-04-21T00:41:10;5.95;;;2.70;;
62582;SDS011;48641;51.676;5.808;2023-04-21T00:43:36;6.22;;;2.67;;
62582;SDS011;48641;51.676;5.808;2023-04-21T00:46:22;6.28;;;2.70;;
62582;SDS011;48641;51.676;5.808;2023-04-21T00:48:47;5.75;;;2.63;;
62582;SDS011;48641;51.676;5.808;2023-04-21T00:51:13;6.70;;;2.63;;
62582;SDS011;48641;51.676;5.808;2023-04-21T00:53:38;5.28;;;2.40;;
62582;SDS011;48641;51.676;5.808;2023-04-21T00:56:05;5.15;;;2.40;;
62582;SDS011;48641;51.676;5.808;2023-04-21T00:58:30;4.93;;;2.30;;
62582;SDS011;48641;51.676;5.808;2023-04-21T01:00:57;6.32;;;2.70;;
62582;SDS011;48641;51.676;5.808;2023-04-21T01:03:23;6.43;;;2.72;;
62582;SDS011;48641;51.676;5.808;2023-04-21T01:05:49;5.45;;;2.17;;
62582;SDS011;48641;51.676;5.808;2023-04-21T01:08:14;5.53;;;2.70;;
62582;SDS011;48641;51.676;5.808;2023-04-21T01:10:41;5.25;;;2.30;;
62582;SDS011;48641;51.676;5.808;2023-04-21T01:13:06;5.57;;;2.22;;
62582;SDS011;48641;51.676;5.808;2023-04-21T01:15:32;5.35;;;2.42;;
62582;SDS011;48641;51.676;5.808;2023-04-21T01:17:57;5.45;;;2.53;;
62582;SDS011;48641;51.676;5.808;2023-04-21T01:20:23;5.70;;;2.28;;
62582;SDS011;48641;51.676;5.808;2023-04-21T01:22:49;5.65;;;2.85;;
62582;SDS011;48641;51.676;5.808;2023-04-21T01:25:15;5.43;;;2.40;;
62582;SDS011;48641;51.676;5.808;2023-04-21T01:27:42;5.82;;;2.60;;
62582;SDS011;48641;51.676;5.808;2023-04-21T01:30:08;6.40;;;2.80;;
62582;SDS011;48641;51.676;5.808;2023-04-21T01:32:34;5.25;;;2.30;;
62582;SDS011;48641;51.676;5.808;2023-04-21T01:35:00;5.70;;;2.60;;
62582;SDS011;48641;51.676;5.808;2023-04-21T01:37:28;6.05;;;2.83;;
62582;SDS011;48641;51.676;5.808;2023-04-21T01:39:56;5.72;;;2.83;;
62582;SDS011;48641;51.676;5.808;2023-04-21T01:42:23;6.45;;;2.78;;
62582;SDS011;48641;51.676;5.808;2023-04-21T01:44:50;5.70;;;2.75;;
62582;SDS011;48641;51.676;5.808;2023-04-21T01:47:17;7.13;;;2.60;;
62582;SDS011;48641;51.676;5.808;2023-04-21T01:49:44;7.00;;;3.13;;
62582;SDS011;48641;51.676;5.808;2023-04-21T01:52:10;5.35;;;2.70;;
62582;SDS011;48641;51.676;5.808;2023-04-21T01:54:35;7.43;;;3.35;;
62582;SDS011;48641;51.676;5.808;2023-04-21T01:57:01;6.53;;;3.00;;
62582;SDS011;48641;51.676;5.808;2023-04-21T01:59:27;6.03;;;2.67;;
62582;SDS011;48641;51.676;5.808;2023-04-21T02:01:53;6.43;;;2.95;;
62582;SDS011;48641;51.676;5.808;2023-04-21T02:04:18;5.63;;;2.63;;
62582;SDS011;48641;51.676;5.808;2023-04-21T02:06:44;5.72;;;2.72;;
62582;SDS011;48641;51.676;5.808;2023-04-21T02:09:10;6.78;;;2.90;;
62582;SDS011;48641;51.676;5.808;2023-04-21T02:11:35;6.30;;;2.97;;
62582;SDS011;48641;51.676;5.808;2023-04-21T02:14:01;5.70;;;2.42;;
62582;SDS011;48641;51.676;5.808;2023-04-21T02:16:27;5.68;;;2.78;;
62582;SDS011;48641;51.676;5.808;2023-04-21T02:18:54;6.72;;;2.88;;
62582;SDS011;48641;51.676;5.808;2023-04-21T02:21:20;6.20;;;2.85;;
62582;SDS011;48641;51.676;5.808;2023-04-21T02:23:47;5.50;;;2.55;;
62582;SDS011;48641;51.676;5.808;2023-04-21T02:26:12;6.38;;;3.13;;
62582;SDS011;48641;51.676;5.808;2023-04-21T02:28:38;7.40;;;2.90;;
62582;SDS011;48641;51.676;5.808;2023-04-21T02:31:04;5.93;;;2.78;;
62582;SDS011;48641;51.676;5.808;2023-04-21T02:33:30;5.93;;;2.78;;
62582;SDS011;48641;51.676;5.808;2023-04-21T02:35:55;5.97;;;2.80;;
62582;SDS011;48641;51.676;5.808;2023-04-21T02:38:21;6.00;;;2.83;;
62582;SDS011;48641;51.676;5.808;2023-04-21T02:40:46;7.78;;;2.83;;
62582;SDS011;48641;51.676;5.808;2023-04-21T02:43:13;6.93;;;3.00;;
62582;SDS011;48641;51.676;5.808;2023-04-21T02:45:38;6.00;;;3.10;;
62582;SDS011;48641;51.676;5.808;2023-04-21T02:48:04;6.07;;;2.72;;
62582;SDS011;48641;51.676;5.808;2023-04-21T02:50:30;5.68;;;2.60;;
62582;SDS011;48641;51.676;5.808;2023-04-21T02:52:56;6.95;;;3.20;;
62582;SDS011;48641;51.676;5.808;2023-04-21T02:55:21;6.38;;;2.88;;
62582;SDS011;48641;51.676;5.808;2023-04-21T02:57:47;7.18;;;3.00;;
62582;SDS011;48641;51.676;5.808;2023-04-21T03:00:13;7.10;;;2.92;;
62582;SDS011;48641;51.676;5.808;2023-04-21T03:02:39;6.15;;;2.83;;
62582;SDS011;48641;51.676;5.808;2023-04-21T03:05:05;7.40;;;3.10;;
62582;SDS011;48641;51.676;5.808;2023-04-21T03:07:31;6.05;;;2.63;;
62582;SDS011;48641;51.676;5.808;2023-04-21T03:09:56;6.72;;;2.90;;
62582;SDS011;48641;51.676;5.808;2023-04-21T03:12:22;6.57;;;2.90;;
62582;SDS011;48641;51.676;5.808;2023-04-21T03:14:47;5.97;;;2.70;;
62582;SDS011;48641;51.676;5.808;2023-04-21T03:17:13;6.82;;;3.13;;
62582;SDS011;48641;51.676;5.808;2023-04-21T03:19:38;6.63;;;3.30;;
62582;SDS011;48641;51.676;5.808;2023-04-21T03:22:04;7.60;;;2.72;;
62582;SDS011;48641;51.676;5.808;2023-04-21T03:24:30;6.35;;;2.97;;
62582;SDS011;48641;51.676;5.808;2023-04-21T03:26:56;7.63;;;3.20;;
62582;SDS011;48641;51.676;5.808;2023-04-21T03:29:22;6.95;;;3.10;;
62582;SDS011;48641;51.676;5.808;2023-04-21T03:31:48;7.45;;;3.50;;
62582;SDS011;48641;51.676;5.808;2023-04-21T03:34:13;7.35;;;3.20;;
62582;SDS011;48641;51.676;5.808;2023-04-21T03:36:39;7.65;;;3.47;;
62582;SDS011;48641;51.676;5.808;2023-04-21T03:39:05;6.60;;;3.10;;
62582;SDS011;48641;51.676;5.808;2023-04-21T03:41:32;7.05;;;3.30;;
62582;SDS011;48641;51.676;5.808;2023-04-21T03:43:57;6.78;;;3.40;;
62582;SDS011;48641;51.676;5.808;2023-04-21T03:46:23;6.55;;;3.10;;
62582;SDS011;48641;51.676;5.808;2023-04-21T03:48:49;6.35;;;3.10;;
62582;SDS011;48641;51.676;5.808;2023-04-21T03:51:15;7.90;;;3.85;;
62582;SDS011;48641;51.676;5.808;2023-04-21T03:53:41;7.05;;;3.25;;
62582;SDS011;48641;51.676;5.808;2023-04-21T03:56:07;6.82;;;3.38;;
62582;SDS011;48641;51.676;5.808;2023-04-21T03:58:33;6.97;;;3.13;;
62582;SDS011;48641;51.676;5.808;2023-04-21T04:00:58;7.35;;;3.05;;
62582;SDS011;48641;51.676;5.808;2023-04-21T04:03:24;7.80;;;3.20;;
62582;SDS011;48641;51.676;5.808;2023-04-21T04:05:49;6.47;;;2.88;;
62582;SDS011;48641;51.676;5.808;2023-04-21T04:08:16;7.13;;;3.60;;
62582;SDS011;48641;51.676;5.808;2023-04-21T04:10:41;7.10;;;3.15;;
62582;SDS011;48641;51.676;5.808;2023-04-21T04:13:07;7.07;;;3.47;;
62582;SDS011;48641;51.676;5.808;2023-04-21T04:15:32;6.93;;;3.17;;
62582;SDS011;48641;51.676;5.808;2023-04-21T04:17:58;7.80;;;3.50;;
62582;SDS011;48641;51.676;5.808;2023-04-21T04:20:24;7.47;;;3.30;;
62582;SDS011;48641;51.676;5.808;2023-04-21T04:22:50;6.90;;;3.28;;
62582;SDS011;48641;51.676;5.808;2023-04-21T04:25:15;7.00;;;3.50;;
62582;SDS011;48641;51.676;5.808;2023-04-21T04:27:44;7.57;;;3.67;;
62582;SDS011;48641;51.676;5.808;2023-04-21T04:30:10;7.60;;;3.33;;
62582;SDS011;48641;51.676;5.808;2023-04-21T04:32:37;8.23;;;3.67;;
62582;SDS011;48641;51.676;5.808;2023-04-21T04:35:06;7.97;;;3.58;;
62582;SDS011;48641;51.676;5.808;2023-04-21T04:37:36;6.85;;;3.20;;
62582;SDS011;48641;51.676;5.808;2023-04-21T04:40:04;7.53;;;3.45;;
62582;SDS011;48641;51.676;5.808;2023-04-21T04:42:30;6.97;;;3.38;;
62582;SDS011;48641;51.676;5.808;2023-04-21T04:44:57;6.40;;;3.00;;
62582;SDS011;48641;51.676;5.808;2023-04-21T04:47:23;7.63;;;3.60;;
62582;SDS011;48641;51.676;5.808;2023-04-21T04:49:49;7.88;;;3.60;;
62582;SDS011;48641;51.676;5.808;2023-04-21T04:52:15;8.57;;;3.50;;
62582;SDS011;48641;51.676;5.808;2023-04-21T04:54:40;7.50;;;3.17;;
62582;SDS011;48641;51.676;5.808;2023-04-21T04:57:06;7.55;;;3.78;;
62582;SDS011;48641;51.676;5.808;2023-04-21T04:59:31;7.93;;;3.60;;
62582;SDS011;48641;51.676;5.808;2023-04-21T05:01:57;7.70;;;3.75;;
62582;SDS011;48641;51.676;5.808;2023-04-21T05:04:23;8.02;;;3.85;;
62582;SDS011;48641;51.676;5.808;2023-04-21T05:06:49;6.90;;;3.10;;
62582;SDS011;48641;51.676;5.808;2023-04-21T05:09:15;8.20;;;3.47;;
62582;SDS011;48641;51.676;5.808;2023-04-21T05:11:40;7.70;;;3.83;;
62582;SDS011;48641;51.676;5.808;2023-04-21T05:14:06;7.45;;;3.65;;
62582;SDS011;48641;51.676;5.808;2023-04-21T05:16:31;7.10;;;3.58;;
62582;SDS011;48641;51.676;5.808;2023-04-21T05:19:00;8.82;;;3.92;;
62582;SDS011;48641;51.676;5.808;2023-04-21T05:21:26;7.97;;;4.20;;
62582;SDS011;48641;51.676;5.808;2023-04-21T05:23:55;8.07;;;3.85;;
62582;SDS011;48641;51.676;5.808;2023-04-21T05:26:22;7.43;;;3.35;;
62582;SDS011;48641;51.676;5.808;2023-04-21T05:28:49;8.30;;;4.00;;
62582;SDS011;48641;51.676;5.808;2023-04-21T05:31:15;9.68;;;4.15;;
62582;SDS011;48641;51.676;5.808;2023-04-21T05:33:41;8.75;;;3.83;;
62582;SDS011;48641;51.676;5.808;2023-04-21T05:36:07;7.85;;;3.90;;
62582;SDS011;48641;51.676;5.808;2023-04-21T05:38:33;7.85;;;3.78;;
62582;SDS011;48641;51.676;5.808;2023-04-21T05:40:59;7.35;;;3.45;;
62582;SDS011;48641;51.676;5.808;2023-04-21T05:43:25;7.57;;;3.75;;
62582;SDS011;48641;51.676;5.808;2023-04-21T05:45:50;8.15;;;3.50;;
62582;SDS011;48641;51.676;5.808;2023-04-21T05:48:16;7.22;;;3.50;;
62582;SDS011;48641;51.676;5.808;2023-04-21T05:50:42;7.13;;;3.42;;
62582;SDS011;48641;51.676;5.808;2023-04-21T05:53:07;7.97;;;3.70;;
62582;SDS011;48641;51.676;5.808;2023-04-21T05:55:33;11.50;;;5.70;;
62582;SDS011;48641;51.676;5.808;2023-04-21T05:57:59;9.50;;;4.70;;
62582;SDS011;48641;51.676;5.808;2023-04-21T06:00:25;8.23;;;4.05;;
62582;SDS011;48641;51.676;5.808;2023-04-21T06:02:51;8.00;;;3.90;;
62582;SDS011;48641;51.676;5.808;2023-04-21T06:05:17;8.55;;;3.92;;
62582;SDS011;48641;51.676;5.808;2023-04-21T06:07:43;8.85;;;3.95;;
62582;SDS011;48641;51.676;5.808;2023-04-21T06:10:09;8.00;;;4.10;;
62582;SDS011;48641;51.676;5.808;2023-04-21T06:12:35;9.27;;;4.63;;
62582;SDS011;48641;51.676;5.808;2023-04-21T06:15:01;8.85;;;4.18;;
62582;SDS011;48641;51.676;5.808;2023-04-21T06:17:26;10.50;;;4.45;;
62582;SDS011;48641;51.676;5.808;2023-04-21T06:19:52;8.40;;;4.38;;
62582;SDS011;48641;51.676;5.808;2023-04-21T06:22:19;9.32;;;4.43;;
62582;SDS011;48641;51.676;5.808;2023-04-21T06:24:48;7.95;;;3.95;;
62582;SDS011;48641;51.676;5.808;2023-04-21T06:27:14;7.72;;;3.78;;
62582;SDS011;48641;51.676;5.808;2023-04-21T06:29:40;7.82;;;3.95;;
62582;SDS011;48641;51.676;5.808;2023-04-21T06:32:09;8.48;;;3.88;;
62582;SDS011;48641;51.676;5.808;2023-04-21T06:34:36;8.20;;;4.10;;
62582;SDS011;48641;51.676;5.808;2023-04-21T06:37:02;8.20;;;4.10;;
62582;SDS011;48641;51.676;5.808;2023-04-21T06:39:27;8.85;;;4.22;;
62582;SDS011;48641;51.676;5.808;2023-04-21T06:41:53;8.18;;;3.88;;
62582;SDS011;48641;51.676;5.808;2023-04-21T06:44:19;8.27;;;3.97;;
62582;SDS011;48641;51.676;5.808;2023-04-21T06:46:45;8.90;;;3.83;;
62582;SDS011;48641;51.676;5.808;2023-04-21T06:49:11;9.00;;;4.22;;
62582;SDS011;48641;51.676;5.808;2023-04-21T06:51:37;9.00;;;4.30;;
62582;SDS011;48641;51.676;5.808;2023-04-21T06:54:02;8.82;;;4.13;;
62582;SDS011;48641;51.676;5.808;2023-04-21T06:56:29;8.85;;;3.75;;
62582;SDS011;48641;51.676;5.808;2023-04-21T06:58:55;9.02;;;3.90;;
62582;SDS011;48641;51.676;5.808;2023-04-21T07:01:20;7.40;;;3.60;;
62582;SDS011;48641;51.676;5.808;2023-04-21T07:03:48;6.97;;;3.47;;
62582;SDS011;48641;51.676;5.808;2023-04-21T07:06:17;8.00;;;3.78;;
62582;SDS011;48641;51.676;5.808;2023-04-21T07:08:42;7.68;;;4.03;;
62582;SDS011;48641;51.676;5.808;2023-04-21T07:11:08;8.35;;;3.63;;
62582;SDS011;48641;51.676;5.808;2023-04-21T07:13:33;9.80;;;4.00;;
62582;SDS011;48641;51.676;5.808;2023-04-21T07:15:59;8.32;;;4.03;;
62582;SDS011;48641;51.676;5.808;2023-04-21T07:18:24;8.73;;;3.80;;
62582;SDS011;48641;51.676;5.808;2023-04-21T07:20:50;8.50;;;4.38;;
62582;SDS011;48641;51.676;5.808;2023-04-21T07:23:16;8.18;;;3.72;;
62582;SDS011;48641;51.676;5.808;2023-04-21T07:25:42;7.95;;;3.45;;
62582;SDS011;48641;51.676;5.808;2023-04-21T07:28:07;8.90;;;3.92;;
62582;SDS011;48641;51.676;5.808;2023-04-21T07:30:33;6.88;;;3.58;;
62582;SDS011;48641;51.676;5.808;2023-04-21T07:32:59;7.57;;;3.75;;
62582;SDS011;48641;51.676;5.808;2023-04-21T07:35:24;7.55;;;3.42;;
62582;SDS011;48641;51.676;5.808;2023-04-21T07:37:50;7.20;;;3.42;;
62582;SDS011;48641;51.676;5.808;2023-04-21T07:40:16;9.65;;;3.80;;
62582;SDS011;48641;51.676;5.808;2023-04-21T07:42:41;7.55;;;3.88;;
62582;SDS011;48641;51.676;5.808;2023-04-21T07:45:07;7.03;;;3.55;;
62582;SDS011;48641;51.676;5.808;2023-04-21T07:47:33;7.85;;;3.45;;
62582;SDS011;48641;51.676;5.808;2023-04-21T07:49:59;8.95;;;4.05;;
62582;SDS011;48641;51.676;5.808;2023-04-21T07:52:25;8.10;;;4.18;;
62582;SDS011;48641;51.676;5.808;2023-04-21T07:54:50;8.18;;;3.70;;
62582;SDS011;48641;51.676;5.808;2023-04-21T07:57:16;8.00;;;3.83;;
62582;SDS011;48641;51.676;5.808;2023-04-21T07:59:41;8.70;;;3.75;;
62582;SDS011;48641;51.676;5.808;2023-04-21T08:02:07;7.68;;;3.35;;
62582;SDS011;48641;51.676;5.808;2023-04-21T08:04:34;9.55;;;4.15;;
62582;SDS011;48641;51.676;5.808;2023-04-21T08:07:00;9.27;;;4.25;;
62582;SDS011;48641;51.676;5.808;2023-04-21T08:09:26;8.80;;;4.00;;
62582;SDS011;48641;51.676;5.808;2023-04-21T08:11:51;7.75;;;4.00;;
62582;SDS011;48641;51.676;5.808;2023-04-21T08:14:18;7.65;;;3.80;;
62582;SDS011;48641;51.676;5.808;2023-04-21T08:16:45;8.18;;;3.58;;
62582;SDS011;48641;51.676;5.808;2023-04-21T08:19:11;7.85;;;3.60;;
62582;SDS011;48641;51.676;5.808;2023-04-21T08:21:38;7.93;;;3.75;;
62582;SDS011;48641;51.676;5.808;2023-04-21T08:24:04;7.18;;;3.53;;
62582;SDS011;48641;51.676;5.808;2023-04-21T08:26:30;7.82;;;3.50;;
62582;SDS011;48641;51.676;5.808;2023-04-21T08:28:57;7.57;;;3.70;;
62582;SDS011;48641;51.676;5.808;2023-04-21T08:31:24;8.10;;;3.35;;
62582;SDS011;48641;51.676;5.808;2023-04-21T08:33:50;7.07;;;3.38;;
62582;SDS011;48641;51.676;5.808;2023-04-21T08:36:15;7.75;;;3.55;;
62582;SDS011;48641;51.676;5.808;2023-04-21T08:38:41;7.55;;;3.33;;
62582;SDS011;48641;51.676;5.808;2023-04-21T08:41:08;7.82;;;3.47;;
62582;SDS011;48641;51.676;5.808;2023-04-21T08:43:34;6.70;;;3.33;;
62582;SDS011;48641;51.676;5.808;2023-04-21T08:46:01;7.75;;;3.60;;
62582;SDS011;48641;51.676;5.808;2023-04-21T08:48:36;7.45;;;3.38;;
62582;SDS011;48641;51.676;5.808;2023-04-21T08:51:03;7.78;;;3.40;;
62582;SDS011;48641;51.676;5.808;2023-04-21T08:53:36;7.70;;;3.45;;
62582;SDS011;48641;51.676;5.808;2023-04-21T08:56:02;7.93;;;3.80;;
62582;SDS011;48641;51.676;5.808;2023-04-21T08:58:28;6.97;;;3.45;;
62582;SDS011;48641;51.676;5.808;2023-04-21T09:00:55;7.10;;;3.63;;
62582;SDS011;48641;51.676;5.808;2023-04-21T09:03:22;6.88;;;3.47;;
62582;SDS011;48641;51.676;5.808;2023-04-21T09:05:58;9.98;;;4.47;;
62582;SDS011;48641;51.676;5.808;2023-04-21T09:08:26;7.78;;;3.85;;
62582;SDS011;48641;51.676;5.808;2023-04-21T09:10:54;7.75;;;3.42;;
62582;SDS011;48641;51.676;5.808;2023-04-21T09:13:22;7.90;;;3.42;;
62582;SDS011;48641;51.676;5.808;2023-04-21T09:15:54;6.82;;;3.40;;
62582;SDS011;48641;51.676;5.808;2023-04-21T09:18:21;6.97;;;3.08;;
62582;SDS011;48641;51.676;5.808;2023-04-21T09:20:49;6.85;;;3.05;;
62582;SDS011;48641;51.676;5.808;2023-04-21T09:23:17;7.22;;;3.25;;
62582;SDS011;48641;51.676;5.808;2023-04-21T09:25:44;7.85;;;3.08;;
62582;SDS011;48641;51.676;5.808;2023-04-21T09:28:11;7.35;;;3.42;;
62582;SDS011;48641;51.676;5.808;2023-04-21T09:30:40;7.43;;;3.42;;
62582;SDS011;48641;51.676;5.808;2023-04-21T09:33:07;7.63;;;4.03;;
62582;SDS011;48641;51.676;5.808;2023-04-21T09:35:39;6.90;;;3.10;;
62582;SDS011;48641;51.676;5.808;2023-04-21T09:38:08;7.18;;;3.58;;
62582;SDS011;48641;51.676;5.808;2023-04-21T09:40:35;7.45;;;3.45;;
62582;SDS011;48641;51.676;5.808;2023-04-21T09:43:01;6.70;;;3.30;;
62582;SDS011;48641;51.676;5.808;2023-04-21T09:45:28;6.60;;;3.33;;
62582;SDS011;48641;51.676;5.808;2023-04-21T09:47:55;8.38;;;3.40;;
62582;SDS011;48641;51.676;5.808;2023-04-21T09:50:22;6.68;;;3.03;;
62582;SDS011;48641;51.676;5.808;2023-04-21T09:52:50;6.88;;;2.90;;
62582;SDS011;48641;51.676;5.808;2023-04-21T09:55:17;7.95;;;3.17;;
62582;SDS011;48641;51.676;5.808;2023-04-21T09:57:43;6.85;;;3.30;;
62582;SDS011;48641;51.676;5.808;2023-04-21T10:00:12;7.60;;;3.60;;
62582;SDS011;48641;51.676;5.808;2023-04-21T10:02:42;7.88;;;3.72;;
62582;SDS011;48641;51.676;5.808;2023-04-21T10:05:10;7.68;;;3.33;;
62582;SDS011;48641;51.676;5.808;2023-04-21T10:07:36;6.78;;;3.38;;
62582;SDS011;48641;51.676;5.808;2023-04-21T10:10:03;5.82;;;3.20;;
62582;SDS011;48641;51.676;5.808;2023-04-21T10:12:33;7.90;;;3.72;;
62582;SDS011;48641;51.676;5.808;2023-04-21T10:15:02;8.50;;;3.60;;
62582;SDS011;48641;51.676;5.808;2023-04-21T10:17:50;7.80;;;3.30;;
62582;SDS011;48641;51.676;5.808;2023-04-21T10:20:16;8.18;;;3.50;;
62582;SDS011;48641;51.676;5.808;2023-04-21T10:22:42;7.88;;;3.42;;
62582;SDS011;48641;51.676;5.808;2023-04-21T10:25:08;6.88;;;3.05;;
62582;SDS011;48641;51.676;5.808;2023-04-21T10:27:40;6.57;;;3.20;;
62582;SDS011;48641;51.676;5.808;2023-04-21T10:30:20;8.20;;;3.58;;
62582;SDS011;48641;51.676;5.808;2023-04-21T10:32:47;6.32;;;2.90;;
62582;SDS011;48641;51.676;5.808;2023-04-21T10:35:14;7.05;;;3.50;;
62582;SDS011;48641;51.676;5.808;2023-04-21T10:37:48;7.57;;;3.60;;
62582;SDS011;48641;51.676;5.808;2023-04-21T10:40:34;7.10;;;3.13;;
62582;SDS011;48641;51.676;5.808;2023-04-21T10:43:04;6.25;;;3.05;;
62582;SDS011;48641;51.676;5.808;2023-04-21T10:45:29;6.75;;;3.28;;
62582;SDS011;48641;51.676;5.808;2023-04-21T10:47:58;7.38;;;3.47;;
62582;SDS011;48641;51.676;5.808;2023-04-21T10:50:29;7.05;;;3.38;;
62582;SDS011;48641;51.676;5.808;2023-04-21T10:53:06;7.10;;;3.50;;
62582;SDS011;48641;51.676;5.808;2023-04-21T10:55:33;8.25;;;3.47;;
62582;SDS011;48641;51.676;5.808;2023-04-21T10:58:01;7.13;;;3.50;;
62582;SDS011;48641;51.676;5.808;2023-04-21T11:00:28;7.20;;;3.42;;
62582;SDS011;48641;51.676;5.808;2023-04-21T11:02:54;7.28;;;3.47;;
62582;SDS011;48641;51.676;5.808;2023-04-21T11:05:32;8.10;;;3.80;;
62582;SDS011;48641;51.676;5.808;2023-04-21T11:08:05;6.63;;;3.03;;
62582;SDS011;48641;51.676;5.808;2023-04-21T11:10:44;7.13;;;3.58;;
62582;SDS011;48641;51.676;5.808;2023-04-21T11:13:15;11.25;;;5.72;;
62582;SDS011;48641;51.676;5.808;2023-04-21T11:15:40;12.02;;;6.75;;
62582;SDS011;48641;51.676;5.808;2023-04-21T11:18:06;7.60;;;3.80;;
62582;SDS011;48641;51.676;5.808;2023-04-21T11:20:33;8.68;;;4.18;;
62582;SDS011;48641;51.676;5.808;2023-04-21T11:23:03;8.85;;;3.90;;
62582;SDS011;48641;51.676;5.808;2023-04-21T11:25:29;9.30;;;4.25;;
62582;SDS011;48641;51.676;5.808;2023-04-21T11:27:55;8.65;;;4.53;;
62582;SDS011;48641;51.676;5.808;2023-04-21T11:30:30;8.40;;;4.30;;
62582;SDS011;48641;51.676;5.808;2023-04-21T11:32:58;8.15;;;4.07;;
62582;SDS011;48641;51.676;5.808;2023-04-21T11:35:23;11.05;;;5.68;;
62582;SDS011;48641;51.676;5.808;2023-04-21T11:37:49;12.18;;;6.45;;
62582;SDS011;48641;51.676;5.808;2023-04-21T11:40:16;10.25;;;5.75;;
62582;SDS011;48641;51.676;5.808;2023-04-21T11:42:42;11.40;;;6.80;;
62582;SDS011;48641;51.676;5.808;2023-04-21T11:45:14;12.88;;;6.28;;
62582;SDS011;48641;51.676;5.808;2023-04-21T11:47:41;12.77;;;7.40;;
62582;SDS011;48641;51.676;5.808;2023-04-21T11:50:06;11.80;;;7.18;;
62582;SDS011;48641;51.676;5.808;2023-04-21T11:52:34;13.82;;;8.82;;
62582;SDS011;48641;51.676;5.808;2023-04-21T11:55:05;14.07;;;7.75;;
62582;SDS011;48641;51.676;5.808;2023-04-21T11:57:43;15.05;;;8.80;;
62582;SDS011;48641;51.676;5.808;2023-04-21T12:00:10;13.30;;;8.45;;
62582;SDS011;48641;51.676;5.808;2023-04-21T12:02:38;16.40;;;9.98;;
62582;SDS011;48641;51.676;5.808;2023-04-21T12:05:04;17.33;;;9.68;;
62582;SDS011;48641;51.676;5.808;2023-04-21T12:07:36;16.92;;;9.73;;
62582;SDS011;48641;51.676;5.808;2023-04-21T12:10:20;14.73;;;9.23;;
62582;SDS011;48641;51.676;5.808;2023-04-21T12:12:46;14.57;;;9.38;;
62582;SDS011;48641;51.676;5.808;2023-04-21T12:15:19;15.77;;;10.15;;
62582;SDS011;48641;51.676;5.808;2023-04-21T12:17:47;16.85;;;10.43;;
62582;SDS011;48641;51.676;5.808;2023-04-21T12:20:15;17.85;;;10.57;;
62582;SDS011;48641;51.676;5.808;2023-04-21T12:22:45;15.63;;;10.68;;
62582;SDS011;48641;51.676;5.808;2023-04-21T12:25:12;18.05;;;11.30;;
62582;SDS011;48641;51.676;5.808;2023-04-21T12:27:58;16.75;;;10.52;;
62582;SDS011;48641;51.676;5.808;2023-04-21T12:30:23;16.58;;;10.23;;
62582;SDS011;48641;51.676;5.808;2023-04-21T12:32:49;16.35;;;11.10;;
62582;SDS011;48641;51.676;5.808;2023-04-21T12:35:16;17.15;;;11.50;;
62582;SDS011;48641;51.676;5.808;2023-04-21T12:37:41;16.95;;;11.60;;
62582;SDS011;48641;51.676;5.808;2023-04-21T12:40:08;20.38;;;14.43;;
62582;SDS011;48641;51.676;5.808;2023-04-21T12:42:34;19.33;;;11.63;;
62582;SDS011;48641;51.676;5.808;2023-04-21T12:45:00;18.02;;;12.13;;
62582;SDS011;48641;51.676;5.808;2023-04-21T12:47:26;17.73;;;11.90;;
62582;SDS011;48641;51.676;5.808;2023-04-21T12:49:51;17.23;;;11.63;;
62582;SDS011;48641;51.676;5.808;2023-04-21T12:52:17;17.90;;;12.15;;
62582;SDS011;48641;51.676;5.808;2023-04-21T12:54:43;17.83;;;11.95;;
62582;SDS011;48641;51.676;5.808;2023-04-21T12:57:08;17.60;;;11.95;;
62582;SDS011;48641;51.676;5.808;2023-04-21T12:59:34;21.08;;;12.93;;
62582;SDS011;48641;51.676;5.808;2023-04-21T13:01:59;18.63;;;12.60;;
62582;SDS011;48641;51.676;5.808;2023-04-21T13:04:25;20.17;;;12.07;;
62582;SDS011;48641;51.676;5.808;2023-04-21T13:06:51;19.90;;;12.45;;
62582;SDS011;48641;51.676;5.808;2023-04-21T13:09:16;18.52;;;11.50;;
62582;SDS011;48641;51.676;5.808;2023-04-21T13:11:42;19.65;;;12.40;;
62582;SDS011;48641;51.676;5.808;2023-04-21T13:14:07;18.33;;;12.13;;
62582;SDS011;48641;51.676;5.808;2023-04-21T13:16:33;19.25;;;12.75;;
62582;SDS011;48641;51.676;5.808;2023-04-21T13:18:59;17.42;;;11.75;;
62582;SDS011;48641;51.676;5.808;2023-04-21T13:21:25;20.30;;;13.43;;
62582;SDS011;48641;51.676;5.808;2023-04-21T13:23:50;20.92;;;13.80;;
62582;SDS011;48641;51.676;5.808;2023-04-21T13:26:17;19.67;;;12.90;;
62582;SDS011;48641;51.676;5.808;2023-04-21T13:28:42;19.58;;;12.73;;
62582;SDS011;48641;51.676;5.808;2023-04-21T13:31:08;19.58;;;12.65;;
62582;SDS011;48641;51.676;5.808;2023-04-21T13:33:34;19.35;;;13.32;;
62582;SDS011;48641;51.676;5.808;2023-04-21T13:36:00;17.73;;;12.60;;
62582;SDS011;48641;51.676;5.808;2023-04-21T13:38:27;18.75;;;13.00;;
62582;SDS011;48641;51.676;5.808;2023-04-21T13:40:53;17.90;;;12.50;;
62582;SDS011;48641;51.676;5.808;2023-04-21T13:43:18;19.60;;;12.50;;
62582;SDS011;48641;51.676;5.808;2023-04-21T13:45:44;18.50;;;12.43;;
62582;SDS011;48641;51.676;5.808;2023-04-21T13:48:12;17.88;;;12.75;;
62582;SDS011;48641;51.676;5.808;2023-04-21T13:50:37;17.67;;;12.07;;
62582;SDS011;48641;51.676;5.808;2023-04-21T13:53:03;18.77;;;12.73;;
62582;SDS011;48641;51.676;5.808;2023-04-21T13:55:28;18.70;;;12.55;;
62582;SDS011;48641;51.676;5.808;2023-04-21T13:57:55;18.75;;;12.50;;
62582;SDS011;48641;51.676;5.808;2023-04-21T14:00:22;19.25;;;12.77;;
62582;SDS011;48641;51.676;5.808;2023-04-21T14:02:48;20.63;;;12.82;;
62582;SDS011;48641;51.676;5.808;2023-04-21T14:05:13;18.30;;;12.57;;
62582;SDS011;48641;51.676;5.808;2023-04-21T14:07:39;19.30;;;12.15;;
62582;SDS011;48641;51.676;5.808;2023-04-21T14:10:06;17.85;;;12.13;;
62582;SDS011;48641;51.676;5.808;2023-04-21T14:12:32;19.25;;;12.57;;
62582;SDS011;48641;51.676;5.808;2023-04-21T14:14:57;20.05;;;12.77;;
62582;SDS011;48641;51.676;5.808;2023-04-21T14:17:23;20.10;;;13.38;;
62582;SDS011;48641;51.676;5.808;2023-04-21T14:19:49;19.25;;;12.88;;
62582;SDS011;48641;51.676;5.808;2023-04-21T14:22:15;19.05;;;12.90;;
62582;SDS011;48641;51.676;5.808;2023-04-21T14:24:40;18.88;;;13.23;;
62582;SDS011;48641;51.676;5.808;2023-04-21T14:27:06;19.73;;;13.27;;
62582;SDS011;48641;51.676;5.808;2023-04-21T14:29:32;18.38;;;12.57;;
62582;SDS011;48641;51.676;5.808;2023-04-21T14:31:57;20.80;;;13.52;;
62582;SDS011;48641;51.676;5.808;2023-04-21T14:34:23;17.92;;;12.23;;
62582;SDS011;48641;51.676;5.808;2023-04-21T14:36:52;18.77;;;12.60;;
62582;SDS011;48641;51.676;5.808;2023-04-21T14:39:18;20.05;;;12.73;;
62582;SDS011;48641;51.676;5.808;2023-04-21T14:49:30;18.90;;;11.95;;